Alyeska Resort
Hourly Weather - Base Weather Site
ALY_BASE_HR 7/2/2015
CLICK TO VIEW GRAPH!!

        DATE  TIME   Air  BATT   H2o   H2o   Rel
                    Temp  Volt  Inch Since  Hum%
                      F   AVG   1HR  0600   AVG

    7/2/2015 14:00    58 13.52  0.00  0.00    71
    7/2/2015 13:00    58 13.53  0.00  0.00    70
    7/2/2015 12:00    57 13.55  0.00  0.00    72
    7/2/2015 11:00    57 13.57  0.00  0.00    73
    7/2/2015 10:00    56 13.60  0.00  0.00    74
    7/2/2015 09:00    54 13.64  0.00  0.00    76
    7/2/2015 08:00    53 13.67  0.00  0.00    76
    7/2/2015 07:00    52 13.71  0.00  0.00    79
    7/2/2015 06:00    49 13.75  0.00  0.00    84
    7/2/2015 05:00    47 13.74  0.00  0.00    87
    7/2/2015 04:00    48 13.69  0.00  0.00    85
    7/2/2015 03:00    52 13.67  0.00  0.00    76
    7/2/2015 02:00    53 13.64  0.00  0.00    76
    7/2/2015 01:00    54 13.61  0.00  0.00    74
    7/1/2015 24:00    55 13.58  0.00  0.00    70
    7/1/2015 23:00    57 13.54  0.00  0.00    65
    7/1/2015 22:00    59 13.48  0.00  0.00    63
    7/1/2015 21:00    62 13.42  0.00  0.00    58
    7/1/2015 20:00    62 13.40  0.00  0.00    52
    7/1/2015 19:00    64 13.37  0.00  0.00    47
    7/1/2015 18:00    64 13.36  0.00  0.00    44
    7/1/2015 17:00    65 13.38  0.00  0.00    44
    7/1/2015 16:00    63 13.43  0.00  0.00    51
    7/1/2015 15:00    61 13.47  0.00  0.00    55


CLICK TO VIEW GRAPH!!